sensor_id;sensor_type;location;lat;lon;timestamp;P1;durP1;ratioP1;P2;durP2;ratioP2
18520;SDS011;9390;51.244;6.982;2024-01-30T00:01:06;15.80;;;8.63;;
18520;SDS011;9390;51.244;6.982;2024-01-30T00:03:38;16.08;;;8.15;;
18520;SDS011;9390;51.244;6.982;2024-01-30T00:06:09;18.70;;;8.73;;
18520;SDS011;9390;51.244;6.982;2024-01-30T00:08:40;18.98;;;9.30;;
18520;SDS011;9390;51.244;6.982;2024-01-30T00:11:13;16.48;;;8.88;;
18520;SDS011;9390;51.244;6.982;2024-01-30T00:13:44;18.85;;;8.63;;
18520;SDS011;9390;51.244;6.982;2024-01-30T00:16:19;18.58;;;8.63;;
18520;SDS011;9390;51.244;6.982;2024-01-30T00:18:51;18.35;;;8.45;;
18520;SDS011;9390;51.244;6.982;2024-01-30T00:21:23;17.15;;;8.43;;
18520;SDS011;9390;51.244;6.982;2024-01-30T00:23:54;16.33;;;9.07;;
18520;SDS011;9390;51.244;6.982;2024-01-30T00:26:27;18.52;;;8.95;;
18520;SDS011;9390;51.244;6.982;2024-01-30T00:28:58;19.52;;;10.15;;
18520;SDS011;9390;51.244;6.982;2024-01-30T00:31:31;16.38;;;8.35;;
18520;SDS011;9390;51.244;6.982;2024-01-30T00:34:02;17.95;;;9.65;;
18520;SDS011;9390;51.244;6.982;2024-01-30T00:36:33;21.00;;;9.02;;
18520;SDS011;9390;51.244;6.982;2024-01-30T00:39:05;16.98;;;8.48;;
18520;SDS011;9390;51.244;6.982;2024-01-30T00:41:40;16.42;;;9.02;;
18520;SDS011;9390;51.244;6.982;2024-01-30T00:44:11;20.60;;;9.45;;
18520;SDS011;9390;51.244;6.982;2024-01-30T00:46:43;17.50;;;9.05;;
18520;SDS011;9390;51.244;6.982;2024-01-30T00:49:14;17.17;;;9.18;;
18520;SDS011;9390;51.244;6.982;2024-01-30T00:51:46;20.75;;;9.93;;
18520;SDS011;9390;51.244;6.982;2024-01-30T00:54:17;17.98;;;8.95;;
18520;SDS011;9390;51.244;6.982;2024-01-30T00:56:50;15.60;;;8.32;;
18520;SDS011;9390;51.244;6.982;2024-01-30T00:59:21;19.90;;;8.27;;
18520;SDS011;9390;51.244;6.982;2024-01-30T01:01:52;21.75;;;8.38;;
18520;SDS011;9390;51.244;6.982;2024-01-30T01:04:24;17.55;;;8.85;;
18520;SDS011;9390;51.244;6.982;2024-01-30T01:06:56;16.73;;;8.70;;
18520;SDS011;9390;51.244;6.982;2024-01-30T01:09:28;17.88;;;9.77;;
18520;SDS011;9390;51.244;6.982;2024-01-30T01:12:01;20.30;;;8.75;;
18520;SDS011;9390;51.244;6.982;2024-01-30T01:14:32;21.67;;;8.70;;
18520;SDS011;9390;51.244;6.982;2024-01-30T01:17:04;16.50;;;8.88;;
18520;SDS011;9390;51.244;6.982;2024-01-30T01:19:35;18.60;;;8.70;;
18520;SDS011;9390;51.244;6.982;2024-01-30T01:22:07;16.70;;;8.38;;
18520;SDS011;9390;51.244;6.982;2024-01-30T01:24:38;16.58;;;8.85;;
18520;SDS011;9390;51.244;6.982;2024-01-30T01:27:11;17.20;;;8.65;;
18520;SDS011;9390;51.244;6.982;2024-01-30T01:29:42;18.27;;;8.85;;
18520;SDS011;9390;51.244;6.982;2024-01-30T01:32:13;18.40;;;9.07;;
18520;SDS011;9390;51.244;6.982;2024-01-30T01:34:45;24.42;;;9.32;;
18520;SDS011;9390;51.244;6.982;2024-01-30T01:37:16;17.92;;;9.25;;
18520;SDS011;9390;51.244;6.982;2024-01-30T01:39:48;15.25;;;8.27;;
18520;SDS011;9390;51.244;6.982;2024-01-30T01:42:20;17.17;;;8.68;;
18520;SDS011;9390;51.244;6.982;2024-01-30T01:47:24;19.88;;;8.93;;
18520;SDS011;9390;51.244;6.982;2024-01-30T01:49:55;19.65;;;9.15;;
18520;SDS011;9390;51.244;6.982;2024-01-30T01:52:26;18.45;;;9.13;;
18520;SDS011;9390;51.244;6.982;2024-01-30T01:54:58;17.92;;;9.82;;
18520;SDS011;9390;51.244;6.982;2024-01-30T01:57:31;22.42;;;9.82;;
18520;SDS011;9390;51.244;6.982;2024-01-30T02:00:02;16.30;;;9.25;;
18520;SDS011;9390;51.244;6.982;2024-01-30T02:02:35;17.27;;;9.37;;
18520;SDS011;9390;51.244;6.982;2024-01-30T02:05:07;27.63;;;9.88;;
18520;SDS011;9390;51.244;6.982;2024-01-30T02:07:39;15.32;;;8.50;;
18520;SDS011;9390;51.244;6.982;2024-01-30T02:10:11;15.02;;;8.60;;
18520;SDS011;9390;51.244;6.982;2024-01-30T02:12:44;20.35;;;9.95;;
18520;SDS011;9390;51.244;6.982;2024-01-30T02:15:15;21.80;;;9.70;;
18520;SDS011;9390;51.244;6.982;2024-01-30T02:17:47;22.15;;;9.93;;
18520;SDS011;9390;51.244;6.982;2024-01-30T02:20:18;19.70;;;9.55;;
18520;SDS011;9390;51.244;6.982;2024-01-30T02:22:51;20.60;;;9.32;;
18520;SDS011;9390;51.244;6.982;2024-01-30T02:25:29;18.52;;;8.75;;
18520;SDS011;9390;51.244;6.982;2024-01-30T02:28:02;18.58;;;9.35;;
18520;SDS011;9390;51.244;6.982;2024-01-30T02:30:33;19.15;;;9.13;;
18520;SDS011;9390;51.244;6.982;2024-01-30T02:33:04;18.40;;;9.10;;
18520;SDS011;9390;51.244;6.982;2024-01-30T02:35:36;18.40;;;9.27;;
18520;SDS011;9390;51.244;6.982;2024-01-30T02:38:08;20.35;;;8.82;;
18520;SDS011;9390;51.244;6.982;2024-01-30T02:40:40;15.38;;;7.65;;
18520;SDS011;9390;51.244;6.982;2024-01-30T02:43:11;17.80;;;9.30;;
18520;SDS011;9390;51.244;6.982;2024-01-30T02:45:43;15.60;;;8.63;;
18520;SDS011;9390;51.244;6.982;2024-01-30T02:48:14;16.52;;;8.50;;
18520;SDS011;9390;51.244;6.982;2024-01-30T02:50:45;17.35;;;8.30;;
18520;SDS011;9390;51.244;6.982;2024-01-30T02:53:18;16.05;;;8.15;;
18520;SDS011;9390;51.244;6.982;2024-01-30T02:55:50;16.98;;;8.52;;
18520;SDS011;9390;51.244;6.982;2024-01-30T02:58:21;16.52;;;8.30;;
18520;SDS011;9390;51.244;6.982;2024-01-30T03:00:52;16.40;;;8.27;;
18520;SDS011;9390;51.244;6.982;2024-01-30T03:03:24;16.52;;;8.02;;
18520;SDS011;9390;51.244;6.982;2024-01-30T03:05:55;18.73;;;9.15;;
18520;SDS011;9390;51.244;6.982;2024-01-30T03:08:28;13.48;;;7.80;;
18520;SDS011;9390;51.244;6.982;2024-01-30T03:10:59;19.60;;;9.27;;
18520;SDS011;9390;51.244;6.982;2024-01-30T03:13:31;17.67;;;8.80;;
18520;SDS011;9390;51.244;6.982;2024-01-30T03:16:02;17.70;;;9.13;;
18520;SDS011;9390;51.244;6.982;2024-01-30T03:18:34;16.73;;;8.63;;
18520;SDS011;9390;51.244;6.982;2024-01-30T03:21:05;17.98;;;8.60;;
18520;SDS011;9390;51.244;6.982;2024-01-30T03:23:38;18.95;;;8.77;;
18520;SDS011;9390;51.244;6.982;2024-01-30T03:26:09;15.07;;;8.30;;
18520;SDS011;9390;51.244;6.982;2024-01-30T03:28:42;15.13;;;8.23;;
18520;SDS011;9390;51.244;6.982;2024-01-30T03:31:14;15.70;;;8.57;;
18520;SDS011;9390;51.244;6.982;2024-01-30T03:33:46;16.50;;;9.50;;
18520;SDS011;9390;51.244;6.982;2024-01-30T03:36:17;15.23;;;8.38;;
18520;SDS011;9390;51.244;6.982;2024-01-30T03:38:50;19.98;;;8.13;;
18520;SDS011;9390;51.244;6.982;2024-01-30T03:41:22;15.38;;;7.97;;
18520;SDS011;9390;51.244;6.982;2024-01-30T03:43:53;17.52;;;8.20;;
18520;SDS011;9390;51.244;6.982;2024-01-30T03:46:24;16.88;;;8.18;;
18520;SDS011;9390;51.244;6.982;2024-01-30T03:48:56;17.80;;;8.38;;
18520;SDS011;9390;51.244;6.982;2024-01-30T03:51:27;16.63;;;8.18;;
18520;SDS011;9390;51.244;6.982;2024-01-30T03:54:00;18.17;;;8.10;;
18520;SDS011;9390;51.244;6.982;2024-01-30T03:56:31;15.93;;;7.78;;
18520;SDS011;9390;51.244;6.982;2024-01-30T03:59:03;14.05;;;7.57;;
18520;SDS011;9390;51.244;6.982;2024-01-30T04:01:34;16.35;;;7.80;;
18520;SDS011;9390;51.244;6.982;2024-01-30T04:04:06;19.40;;;7.95;;
18520;SDS011;9390;51.244;6.982;2024-01-30T04:06:37;15.50;;;8.13;;
18520;SDS011;9390;51.244;6.982;2024-01-30T04:09:10;17.85;;;7.82;;
18520;SDS011;9390;51.244;6.982;2024-01-30T04:11:43;18.10;;;7.75;;
18520;SDS011;9390;51.244;6.982;2024-01-30T04:14:14;16.73;;;7.72;;
18520;SDS011;9390;51.244;6.982;2024-01-30T04:16:45;15.50;;;7.68;;
18520;SDS011;9390;51.244;6.982;2024-01-30T04:19:17;20.05;;;7.95;;
18520;SDS011;9390;51.244;6.982;2024-01-30T04:21:48;14.70;;;7.05;;
18520;SDS011;9390;51.244;6.982;2024-01-30T04:24:21;17.30;;;8.20;;
18520;SDS011;9390;51.244;6.982;2024-01-30T04:26:52;15.73;;;7.43;;
18520;SDS011;9390;51.244;6.982;2024-01-30T04:29:23;18.30;;;7.20;;
18520;SDS011;9390;51.244;6.982;2024-01-30T04:31:55;14.20;;;6.70;;
18520;SDS011;9390;51.244;6.982;2024-01-30T04:34:26;12.68;;;7.15;;
18520;SDS011;9390;51.244;6.982;2024-01-30T04:36:57;16.23;;;7.35;;
18520;SDS011;9390;51.244;6.982;2024-01-30T04:39:30;16.25;;;7.20;;
18520;SDS011;9390;51.244;6.982;2024-01-30T04:42:04;14.32;;;7.43;;
18520;SDS011;9390;51.244;6.982;2024-01-30T04:44:36;15.33;;;7.30;;
18520;SDS011;9390;51.244;6.982;2024-01-30T04:47:07;15.13;;;7.20;;
18520;SDS011;9390;51.244;6.982;2024-01-30T04:49:40;22.77;;;7.13;;
18520;SDS011;9390;51.244;6.982;2024-01-30T04:52:11;16.30;;;7.93;;
18520;SDS011;9390;51.244;6.982;2024-01-30T04:54:44;20.95;;;7.80;;
18520;SDS011;9390;51.244;6.982;2024-01-30T04:57:15;17.05;;;6.82;;
18520;SDS011;9390;51.244;6.982;2024-01-30T04:59:46;17.08;;;7.22;;
18520;SDS011;9390;51.244;6.982;2024-01-30T05:02:18;18.65;;;7.78;;
18520;SDS011;9390;51.244;6.982;2024-01-30T05:04:49;15.35;;;7.40;;
18520;SDS011;9390;51.244;6.982;2024-01-30T05:07:20;14.18;;;7.07;;
18520;SDS011;9390;51.244;6.982;2024-01-30T05:09:53;15.73;;;7.32;;
18520;SDS011;9390;51.244;6.982;2024-01-30T05:14:56;15.25;;;6.93;;
18520;SDS011;9390;51.244;6.982;2024-01-30T05:17:27;16.92;;;7.40;;
18520;SDS011;9390;51.244;6.982;2024-01-30T05:19:59;16.17;;;7.68;;
18520;SDS011;9390;51.244;6.982;2024-01-30T05:22:30;17.92;;;7.88;;
18520;SDS011;9390;51.244;6.982;2024-01-30T05:25:03;13.40;;;7.05;;
18520;SDS011;9390;51.244;6.982;2024-01-30T05:27:35;18.35;;;7.63;;
18520;SDS011;9390;51.244;6.982;2024-01-30T05:30:07;18.52;;;6.93;;
18520;SDS011;9390;51.244;6.982;2024-01-30T05:32:39;16.43;;;7.70;;
18520;SDS011;9390;51.244;6.982;2024-01-30T05:35:10;14.13;;;7.10;;
18520;SDS011;9390;51.244;6.982;2024-01-30T05:37:42;15.98;;;7.82;;
18520;SDS011;9390;51.244;6.982;2024-01-30T05:40:14;16.85;;;7.55;;
18520;SDS011;9390;51.244;6.982;2024-01-30T05:42:46;17.90;;;7.55;;
18520;SDS011;9390;51.244;6.982;2024-01-30T05:45:18;12.68;;;7.03;;
18520;SDS011;9390;51.244;6.982;2024-01-30T05:47:50;18.38;;;7.85;;
18520;SDS011;9390;51.244;6.982;2024-01-30T05:50:21;17.20;;;7.00;;
18520;SDS011;9390;51.244;6.982;2024-01-30T05:52:53;16.27;;;6.85;;
18520;SDS011;9390;51.244;6.982;2024-01-30T05:55:26;13.63;;;7.43;;
18520;SDS011;9390;51.244;6.982;2024-01-30T05:57:57;14.57;;;7.07;;
18520;SDS011;9390;51.244;6.982;2024-01-30T06:00:28;17.85;;;7.00;;
18520;SDS011;9390;51.244;6.982;2024-01-30T06:03:00;15.88;;;6.57;;
18520;SDS011;9390;51.244;6.982;2024-01-30T06:05:31;12.13;;;6.35;;
18520;SDS011;9390;51.244;6.982;2024-01-30T06:08:03;15.48;;;6.97;;
18520;SDS011;9390;51.244;6.982;2024-01-30T06:10:36;14.05;;;6.88;;
18520;SDS011;9390;51.244;6.982;2024-01-30T06:13:07;13.00;;;6.55;;
18520;SDS011;9390;51.244;6.982;2024-01-30T06:15:38;13.77;;;6.90;;
18520;SDS011;9390;51.244;6.982;2024-01-30T06:18:10;16.00;;;7.22;;
18520;SDS011;9390;51.244;6.982;2024-01-30T06:20:41;14.45;;;7.03;;
18520;SDS011;9390;51.244;6.982;2024-01-30T06:23:13;13.90;;;7.00;;
18520;SDS011;9390;51.244;6.982;2024-01-30T06:25:45;13.48;;;7.07;;
18520;SDS011;9390;51.244;6.982;2024-01-30T06:28:17;13.40;;;7.07;;
18520;SDS011;9390;51.244;6.982;2024-01-30T06:30:48;14.20;;;6.53;;
18520;SDS011;9390;51.244;6.982;2024-01-30T06:33:20;12.77;;;6.45;;
18520;SDS011;9390;51.244;6.982;2024-01-30T06:35:51;15.45;;;6.90;;
18520;SDS011;9390;51.244;6.982;2024-01-30T06:38:22;15.88;;;7.40;;
18520;SDS011;9390;51.244;6.982;2024-01-30T06:40:55;12.20;;;6.63;;
18520;SDS011;9390;51.244;6.982;2024-01-30T06:43:26;15.85;;;7.07;;
18520;SDS011;9390;51.244;6.982;2024-01-30T06:45:58;14.25;;;6.65;;
18520;SDS011;9390;51.244;6.982;2024-01-30T06:48:29;16.42;;;7.30;;
18520;SDS011;9390;51.244;6.982;2024-01-30T06:51:00;13.60;;;6.88;;
18520;SDS011;9390;51.244;6.982;2024-01-30T06:53:32;16.40;;;7.40;;
18520;SDS011;9390;51.244;6.982;2024-01-30T06:56:05;16.05;;;7.15;;
18520;SDS011;9390;51.244;6.982;2024-01-30T06:58:37;15.63;;;7.85;;
18520;SDS011;9390;51.244;6.982;2024-01-30T07:01:08;14.10;;;7.32;;
18520;SDS011;9390;51.244;6.982;2024-01-30T07:03:40;16.08;;;7.97;;
18520;SDS011;9390;51.244;6.982;2024-01-30T07:06:12;15.55;;;7.45;;
18520;SDS011;9390;51.244;6.982;2024-01-30T07:08:43;15.38;;;6.75;;
18520;SDS011;9390;51.244;6.982;2024-01-30T07:11:19;15.73;;;6.85;;
18520;SDS011;9390;51.244;6.982;2024-01-30T07:13:51;14.13;;;7.45;;
18520;SDS011;9390;51.244;6.982;2024-01-30T07:16:26;17.52;;;7.20;;
18520;SDS011;9390;51.244;6.982;2024-01-30T07:18:57;14.15;;;7.70;;
18520;SDS011;9390;51.244;6.982;2024-01-30T07:21:28;13.82;;;6.97;;
18520;SDS011;9390;51.244;6.982;2024-01-30T07:24:00;11.98;;;6.45;;
18520;SDS011;9390;51.244;6.982;2024-01-30T07:26:32;13.45;;;7.10;;
18520;SDS011;9390;51.244;6.982;2024-01-30T07:29:05;14.88;;;6.53;;
18520;SDS011;9390;51.244;6.982;2024-01-30T07:31:36;16.02;;;7.53;;
18520;SDS011;9390;51.244;6.982;2024-01-30T07:34:08;16.92;;;6.90;;
18520;SDS011;9390;51.244;6.982;2024-01-30T07:36:39;12.10;;;6.07;;
18520;SDS011;9390;51.244;6.982;2024-01-30T07:39:11;15.30;;;6.88;;
18520;SDS011;9390;51.244;6.982;2024-01-30T07:41:43;15.32;;;7.05;;
18520;SDS011;9390;51.244;6.982;2024-01-30T07:44:15;14.18;;;6.97;;
18520;SDS011;9390;51.244;6.982;2024-01-30T07:46:46;16.40;;;7.00;;
18520;SDS011;9390;51.244;6.982;2024-01-30T07:49:18;15.82;;;7.00;;
18520;SDS011;9390;51.244;6.982;2024-01-30T07:51:49;16.55;;;6.93;;
18520;SDS011;9390;51.244;6.982;2024-01-30T07:54:20;11.43;;;6.55;;
18520;SDS011;9390;51.244;6.982;2024-01-30T07:56:53;14.57;;;7.20;;
18520;SDS011;9390;51.244;6.982;2024-01-30T08:01:56;13.55;;;7.53;;
18520;SDS011;9390;51.244;6.982;2024-01-30T08:04:27;14.90;;;7.20;;
18520;SDS011;9390;51.244;6.982;2024-01-30T08:06:58;14.00;;;6.55;;
18520;SDS011;9390;51.244;6.982;2024-01-30T08:09:30;15.80;;;7.60;;
18520;SDS011;9390;51.244;6.982;2024-01-30T08:12:03;15.63;;;7.30;;
18520;SDS011;9390;51.244;6.982;2024-01-30T08:14:35;14.38;;;7.18;;
18520;SDS011;9390;51.244;6.982;2024-01-30T08:17:06;16.85;;;7.10;;
18520;SDS011;9390;51.244;6.982;2024-01-30T08:19:38;13.80;;;7.97;;
18520;SDS011;9390;51.244;6.982;2024-01-30T08:22:09;14.27;;;6.90;;
18520;SDS011;9390;51.244;6.982;2024-01-30T08:24:40;14.13;;;7.28;;
18520;SDS011;9390;51.244;6.982;2024-01-30T08:27:13;16.77;;;7.00;;
18520;SDS011;9390;51.244;6.982;2024-01-30T08:29:45;14.05;;;6.88;;
18520;SDS011;9390;51.244;6.982;2024-01-30T08:32:16;14.20;;;6.70;;
18520;SDS011;9390;51.244;6.982;2024-01-30T08:34:47;15.48;;;6.80;;
18520;SDS011;9390;51.244;6.982;2024-01-30T08:37:19;19.38;;;7.50;;
18520;SDS011;9390;51.244;6.982;2024-01-30T08:39:50;18.40;;;7.28;;
18520;SDS011;9390;51.244;6.982;2024-01-30T08:42:23;12.98;;;6.70;;
18520;SDS011;9390;51.244;6.982;2024-01-30T08:44:55;13.93;;;7.25;;
18520;SDS011;9390;51.244;6.982;2024-01-30T08:47:26;15.55;;;7.50;;
18520;SDS011;9390;51.244;6.982;2024-01-30T08:49:58;17.33;;;7.82;;
18520;SDS011;9390;51.244;6.982;2024-01-30T08:52:29;17.17;;;7.93;;
18520;SDS011;9390;51.244;6.982;2024-01-30T08:55:00;16.35;;;6.85;;
18520;SDS011;9390;51.244;6.982;2024-01-30T08:57:33;13.70;;;7.43;;
18520;SDS011;9390;51.244;6.982;2024-01-30T09:00:05;15.55;;;7.78;;
18520;SDS011;9390;51.244;6.982;2024-01-30T09:02:39;15.40;;;7.85;;
18520;SDS011;9390;51.244;6.982;2024-01-30T09:05:10;14.80;;;7.88;;
18520;SDS011;9390;51.244;6.982;2024-01-30T09:07:41;14.38;;;7.07;;
18520;SDS011;9390;51.244;6.982;2024-01-30T09:10:13;16.48;;;7.45;;
18520;SDS011;9390;51.244;6.982;2024-01-30T09:12:46;15.75;;;7.22;;
18520;SDS011;9390;51.244;6.982;2024-01-30T09:15:17;13.43;;;6.88;;
18520;SDS011;9390;51.244;6.982;2024-01-30T09:17:48;12.73;;;6.50;;
18520;SDS011;9390;51.244;6.982;2024-01-30T09:20:20;17.48;;;7.80;;
18520;SDS011;9390;51.244;6.982;2024-01-30T09:22:53;13.82;;;7.00;;
18520;SDS011;9390;51.244;6.982;2024-01-30T09:25:24;14.68;;;6.97;;
18520;SDS011;9390;51.244;6.982;2024-01-30T09:27:57;15.55;;;7.18;;
18520;SDS011;9390;51.244;6.982;2024-01-30T09:30:28;14.55;;;7.00;;
18520;SDS011;9390;51.244;6.982;2024-01-30T09:32:59;14.23;;;6.80;;
18520;SDS011;9390;51.244;6.982;2024-01-30T09:35:31;13.23;;;6.72;;
18520;SDS011;9390;51.244;6.982;2024-01-30T09:38:02;17.30;;;7.57;;
18520;SDS011;9390;51.244;6.982;2024-01-30T09:40:34;11.70;;;6.25;;
18520;SDS011;9390;51.244;6.982;2024-01-30T09:43:06;14.25;;;6.88;;
18520;SDS011;9390;51.244;6.982;2024-01-30T09:45:38;13.90;;;6.70;;
18520;SDS011;9390;51.244;6.982;2024-01-30T09:48:10;14.35;;;7.35;;
18520;SDS011;9390;51.244;6.982;2024-01-30T09:50:42;17.83;;;6.95;;
18520;SDS011;9390;51.244;6.982;2024-01-30T09:53:14;13.15;;;6.55;;
18520;SDS011;9390;51.244;6.982;2024-01-30T09:55:47;13.65;;;6.35;;
18520;SDS011;9390;51.244;6.982;2024-01-30T09:58:20;15.43;;;6.90;;
18520;SDS011;9390;51.244;6.982;2024-01-30T10:00:51;13.20;;;6.57;;
18520;SDS011;9390;51.244;6.982;2024-01-30T10:03:23;12.43;;;6.30;;
18520;SDS011;9390;51.244;6.982;2024-01-30T10:05:55;13.25;;;6.95;;
18520;SDS011;9390;51.244;6.982;2024-01-30T10:08:27;15.88;;;6.93;;
18520;SDS011;9390;51.244;6.982;2024-01-30T10:10:59;14.90;;;6.80;;
18520;SDS011;9390;51.244;6.982;2024-01-30T10:13:33;13.23;;;6.82;;
18520;SDS011;9390;51.244;6.982;2024-01-30T10:16:05;14.25;;;6.38;;
18520;SDS011;9390;51.244;6.982;2024-01-30T10:18:37;14.30;;;7.25;;
18520;SDS011;9390;51.244;6.982;2024-01-30T10:21:09;12.68;;;6.90;;
18520;SDS011;9390;51.244;6.982;2024-01-30T10:23:40;15.60;;;7.18;;
18520;SDS011;9390;51.244;6.982;2024-01-30T10:26:12;14.80;;;7.03;;
18520;SDS011;9390;51.244;6.982;2024-01-30T10:28:45;16.73;;;7.05;;
18520;SDS011;9390;51.244;6.982;2024-01-30T10:31:17;12.00;;;6.13;;
18520;SDS011;9390;51.244;6.982;2024-01-30T10:33:49;18.13;;;7.43;;
18520;SDS011;9390;51.244;6.982;2024-01-30T10:36:20;13.45;;;6.55;;
18520;SDS011;9390;51.244;6.982;2024-01-30T10:38:54;17.45;;;7.18;;
18520;SDS011;9390;51.244;6.982;2024-01-30T10:41:27;13.50;;;6.05;;
18520;SDS011;9390;51.244;6.982;2024-01-30T10:44:02;13.30;;;6.07;;
18520;SDS011;9390;51.244;6.982;2024-01-30T10:46:34;12.60;;;6.28;;
18520;SDS011;9390;51.244;6.982;2024-01-30T10:49:06;16.20;;;6.63;;
18520;SDS011;9390;51.244;6.982;2024-01-30T10:51:38;13.35;;;6.47;;
18520;SDS011;9390;51.244;6.982;2024-01-30T10:54:10;11.23;;;5.90;;
18520;SDS011;9390;51.244;6.982;2024-01-30T10:56:43;12.60;;;6.78;;
18520;SDS011;9390;51.244;6.982;2024-01-30T10:59:16;13.48;;;6.20;;
18520;SDS011;9390;51.244;6.982;2024-01-30T11:04:20;14.02;;;6.22;;
18520;SDS011;9390;51.244;6.982;2024-01-30T11:06:52;14.45;;;6.97;;
18520;SDS011;9390;51.244;6.982;2024-01-30T11:09:24;14.25;;;6.28;;
18520;SDS011;9390;51.244;6.982;2024-01-30T11:11:56;11.85;;;5.43;;
18520;SDS011;9390;51.244;6.982;2024-01-30T11:14:31;10.80;;;5.38;;
18520;SDS011;9390;51.244;6.982;2024-01-30T11:17:03;11.35;;;5.25;;
18520;SDS011;9390;51.244;6.982;2024-01-30T11:19:35;14.20;;;6.07;;
18520;SDS011;9390;51.244;6.982;2024-01-30T11:22:06;13.23;;;5.97;;
18520;SDS011;9390;51.244;6.982;2024-01-30T11:24:41;13.77;;;5.88;;
18520;SDS011;9390;51.244;6.982;2024-01-30T11:27:12;16.77;;;6.07;;
18520;SDS011;9390;51.244;6.982;2024-01-30T11:29:51;15.25;;;6.38;;
18520;SDS011;9390;51.244;6.982;2024-01-30T11:32:22;13.40;;;5.85;;
18520;SDS011;9390;51.244;6.982;2024-01-30T11:34:54;14.65;;;6.35;;
18520;SDS011;9390;51.244;6.982;2024-01-30T11:37:26;13.50;;;5.60;;
18520;SDS011;9390;51.244;6.982;2024-01-30T11:39:58;13.48;;;5.45;;
18520;SDS011;9390;51.244;6.982;2024-01-30T11:42:29;12.25;;;6.15;;
18520;SDS011;9390;51.244;6.982;2024-01-30T11:45:02;13.93;;;5.60;;
18520;SDS011;9390;51.244;6.982;2024-01-30T11:47:35;16.35;;;6.47;;
18520;SDS011;9390;51.244;6.982;2024-01-30T11:50:08;15.25;;;6.18;;
18520;SDS011;9390;51.244;6.982;2024-01-30T11:52:40;14.02;;;6.43;;
18520;SDS011;9390;51.244;6.982;2024-01-30T11:55:13;14.05;;;6.40;;
18520;SDS011;9390;51.244;6.982;2024-01-30T11:57:45;15.73;;;6.78;;
18520;SDS011;9390;51.244;6.982;2024-01-30T12:00:18;12.18;;;5.43;;
18520;SDS011;9390;51.244;6.982;2024-01-30T12:02:51;13.63;;;6.18;;
18520;SDS011;9390;51.244;6.982;2024-01-30T12:05:26;15.05;;;6.38;;
18520;SDS011;9390;51.244;6.982;2024-01-30T12:07:57;14.80;;;6.00;;
18520;SDS011;9390;51.244;6.982;2024-01-30T12:10:29;19.38;;;7.13;;
18520;SDS011;9390;51.244;6.982;2024-01-30T12:13:00;13.98;;;6.90;;
18520;SDS011;9390;51.244;6.982;2024-01-30T12:15:34;17.38;;;6.75;;
18520;SDS011;9390;51.244;6.982;2024-01-30T12:18:06;14.52;;;6.38;;
18520;SDS011;9390;51.244;6.982;2024-01-30T12:20:38;19.60;;;6.60;;
18520;SDS011;9390;51.244;6.982;2024-01-30T12:23:09;15.15;;;6.85;;
18520;SDS011;9390;51.244;6.982;2024-01-30T12:25:43;16.05;;;6.53;;
18520;SDS011;9390;51.244;6.982;2024-01-30T12:28:15;14.50;;;6.30;;
18520;SDS011;9390;51.244;6.982;2024-01-30T12:30:47;13.70;;;6.70;;
18520;SDS011;9390;51.244;6.982;2024-01-30T12:33:19;16.75;;;7.25;;
18520;SDS011;9390;51.244;6.982;2024-01-30T12:35:50;18.45;;;7.22;;
18520;SDS011;9390;51.244;6.982;2024-01-30T12:38:22;13.70;;;6.28;;
18520;SDS011;9390;51.244;6.982;2024-01-30T12:40:54;17.55;;;6.78;;
18520;SDS011;9390;51.244;6.982;2024-01-30T12:43:26;13.98;;;7.40;;
18520;SDS011;9390;51.244;6.982;2024-01-30T12:46:02;16.10;;;7.03;;
18520;SDS011;9390;51.244;6.982;2024-01-30T12:48:34;15.55;;;7.10;;
18520;SDS011;9390;51.244;6.982;2024-01-30T12:51:06;17.23;;;7.15;;
18520;SDS011;9390;51.244;6.982;2024-01-30T12:53:38;12.40;;;6.60;;
18520;SDS011;9390;51.244;6.982;2024-01-30T12:56:09;17.77;;;6.53;;
18520;SDS011;9390;51.244;6.982;2024-01-30T12:58:41;17.30;;;6.85;;
18520;SDS011;9390;51.244;6.982;2024-01-30T13:01:14;15.85;;;6.57;;
18520;SDS011;9390;51.244;6.982;2024-01-30T13:03:45;13.20;;;6.20;;
18520;SDS011;9390;51.244;6.982;2024-01-30T13:06:17;16.58;;;6.68;;
18520;SDS011;9390;51.244;6.982;2024-01-30T13:08:48;14.48;;;6.03;;
18520;SDS011;9390;51.244;6.982;2024-01-30T13:11:20;15.50;;;6.85;;
18520;SDS011;9390;51.244;6.982;2024-01-30T13:13:51;12.90;;;6.70;;
18520;SDS011;9390;51.244;6.982;2024-01-30T13:16:25;17.80;;;6.20;;
18520;SDS011;9390;51.244;6.982;2024-01-30T13:18:56;18.70;;;6.10;;
18520;SDS011;9390;51.244;6.982;2024-01-30T13:21:27;13.43;;;5.90;;
18520;SDS011;9390;51.244;6.982;2024-01-30T13:23:59;13.52;;;5.45;;
18520;SDS011;9390;51.244;6.982;2024-01-30T13:26:31;16.20;;;5.68;;
18520;SDS011;9390;51.244;6.982;2024-01-30T13:29:03;20.00;;;6.35;;
18520;SDS011;9390;51.244;6.982;2024-01-30T13:31:36;16.92;;;6.43;;
18520;SDS011;9390;51.244;6.982;2024-01-30T13:34:09;15.75;;;6.68;;
18520;SDS011;9390;51.244;6.982;2024-01-30T13:36:40;16.13;;;6.35;;
18520;SDS011;9390;51.244;6.982;2024-01-30T13:39:13;12.93;;;6.70;;
18520;SDS011;9390;51.244;6.982;2024-01-30T13:41:44;15.35;;;6.47;;
18520;SDS011;9390;51.244;6.982;2024-01-30T13:44:16;15.00;;;6.88;;
18520;SDS011;9390;51.244;6.982;2024-01-30T13:46:49;16.52;;;7.20;;
18520;SDS011;9390;51.244;6.982;2024-01-30T13:49:20;16.92;;;6.70;;
18520;SDS011;9390;51.244;6.982;2024-01-30T13:51:53;12.80;;;6.60;;
18520;SDS011;9390;51.244;6.982;2024-01-30T13:54:24;14.05;;;6.30;;
18520;SDS011;9390;51.244;6.982;2024-01-30T13:56:56;15.32;;;6.55;;
18520;SDS011;9390;51.244;6.982;2024-01-30T13:59:27;20.13;;;7.85;;
18520;SDS011;9390;51.244;6.982;2024-01-30T14:02:00;16.50;;;6.90;;
18520;SDS011;9390;51.244;6.982;2024-01-30T14:04:31;16.15;;;7.00;;
18520;SDS011;9390;51.244;6.982;2024-01-30T14:07:03;18.40;;;7.00;;
18520;SDS011;9390;51.244;6.982;2024-01-30T14:09:36;18.45;;;6.55;;
18520;SDS011;9390;51.244;6.982;2024-01-30T14:12:07;16.45;;;6.97;;
18520;SDS011;9390;51.244;6.982;2024-01-30T14:14:39;18.13;;;7.50;;
18520;SDS011;9390;51.244;6.982;2024-01-30T14:17:12;21.25;;;8.10;;
18520;SDS011;9390;51.244;6.982;2024-01-30T14:19:44;16.20;;;7.10;;
18520;SDS011;9390;51.244;6.982;2024-01-30T14:22:15;24.20;;;7.93;;
18520;SDS011;9390;51.244;6.982;2024-01-30T14:24:46;16.25;;;6.57;;
18520;SDS011;9390;51.244;6.982;2024-01-30T14:27:21;16.27;;;7.53;;
18520;SDS011;9390;51.244;6.982;2024-01-30T14:29:52;19.67;;;7.45;;
18520;SDS011;9390;51.244;6.982;2024-01-30T14:32:25;18.27;;;6.88;;
18520;SDS011;9390;51.244;6.982;2024-01-30T14:34:56;17.30;;;7.72;;
18520;SDS011;9390;51.244;6.982;2024-01-30T14:37:27;16.95;;;7.53;;
18520;SDS011;9390;51.244;6.982;2024-01-30T14:40:00;18.48;;;7.53;;
18520;SDS011;9390;51.244;6.982;2024-01-30T14:42:31;20.88;;;7.85;;
18520;SDS011;9390;51.244;6.982;2024-01-30T14:45:03;18.73;;;8.00;;
18520;SDS011;9390;51.244;6.982;2024-01-30T14:47:37;15.10;;;7.60;;
18520;SDS011;9390;51.244;6.982;2024-01-30T14:52:39;17.85;;;7.63;;
18520;SDS011;9390;51.244;6.982;2024-01-30T14:55:11;18.55;;;8.15;;
18520;SDS011;9390;51.244;6.982;2024-01-30T14:57:42;14.93;;;6.90;;
18520;SDS011;9390;51.244;6.982;2024-01-30T15:00:15;16.63;;;7.13;;
18520;SDS011;9390;51.244;6.982;2024-01-30T15:02:49;15.50;;;6.55;;
18520;SDS011;9390;51.244;6.982;2024-01-30T15:05:20;13.43;;;7.03;;
18520;SDS011;9390;51.244;6.982;2024-01-30T15:07:52;19.42;;;8.02;;
18520;SDS011;9390;51.244;6.982;2024-01-30T15:10:23;18.60;;;8.70;;
18520;SDS011;9390;51.244;6.982;2024-01-30T15:12:55;14.02;;;7.40;;
18520;SDS011;9390;51.244;6.982;2024-01-30T15:15:26;17.33;;;8.13;;
18520;SDS011;9390;51.244;6.982;2024-01-30T15:17:59;16.20;;;7.47;;
18520;SDS011;9390;51.244;6.982;2024-01-30T15:20:31;14.70;;;7.10;;
18520;SDS011;9390;51.244;6.982;2024-01-30T15:23:02;16.13;;;7.32;;
18520;SDS011;9390;51.244;6.982;2024-01-30T15:25:34;14.20;;;7.00;;
18520;SDS011;9390;51.244;6.982;2024-01-30T15:28:05;16.08;;;7.65;;